Time;durP1;ratioP1;P1;durP2;ratioP2;P2;SDS_P1;SDS_P2;PMS_P1;PMS_P2;Temp;Humidity;BMP_temperature;BMP_pressure;BME280_temperature;BME280_humidity;BME280_pressure;Samples;Min_cycle;Max_cycle;Signal;HPM_P1;HPM_P2
2022/06/07 00:00:35;;;;;;;12.77;7.15;;;;;;;18.69;73.99;98582.16;5133868;28;20123;-95
2022/06/07 00:03:02;;;;;;;10.65;6.60;;;;;;;18.79;73.31;98583.34;5133607;27;20040;-93
2022/06/07 00:05:29;;;;;;;14.65;6.18;;;;;;;18.77;72.93;98592.47;5132676;28;20055;-93
2022/06/07 00:07:59;;;;;;;10.15;6.38;;;;;;;18.67;73.89;98589.47;5133462;28;20070;-93
2022/06/07 00:10:25;;;;;;;17.35;7.18;;;;;;;18.59;73.74;98589.13;5133450;27;20130;-92
2022/06/07 00:12:52;;;;;;;12.82;6.22;;;;;;;18.52;73.38;98575.19;5133276;27;20035;-92
2022/06/07 00:15:19;;;;;;;9.73;6.18;;;;;;;18.29;74.09;98575.75;5133241;28;20039;-93
2022/06/07 00:17:44;;;;;;;11.13;6.43;;;;;;;18.23;74.74;98579.66;5133330;27;20039;-93
2022/06/07 00:20:11;;;;;;;11.63;6.45;;;;;;;18.13;75.38;98576.69;5133621;28;20047;-93
2022/06/07 00:22:37;;;;;;;9.38;6.65;;;;;;;18.00;76.05;98575.66;5133319;28;20071;-92
2022/06/07 00:25:07;;;;;;;14.93;6.35;;;;;;;18.06;75.27;98583.38;5133174;27;20392;-93
2022/06/07 00:27:33;;;;;;;14.80;6.70;;;;;;;17.82;76.69;98561.50;5133566;27;20047;-93
2022/06/07 00:29:59;;;;;;;11.68;7.15;;;;;;;17.92;76.36;98580.66;5133424;27;20036;-92
2022/06/07 00:32:26;;;;;;;15.70;7.72;;;;;;;17.90;76.38;98577.19;5133176;27;20092;-94
2022/06/07 00:34:52;;;;;;;12.25;6.50;;;;;;;17.93;75.98;98574.31;5132884;27;20043;-93
2022/06/07 00:37:18;;;;;;;12.95;6.32;;;;;;;17.99;75.69;98564.06;5132937;27;20066;-92
2022/06/07 00:39:43;;;;;;;13.77;6.55;;;;;;;17.99;75.25;98568.56;5132747;27;20027;-92
2022/06/07 00:42:11;;;;;;;10.18;6.13;;;;;;;18.00;75.16;98576.56;5132793;28;20067;-93
2022/06/07 00:44:39;;;;;;;10.73;6.22;;;;;;;17.91;75.75;98585.16;5131964;27;20043;-93
2022/06/07 00:47:08;;;;;;;15.82;6.47;;;;;;;17.75;76.04;98570.88;5132428;27;20039;-93
2022/06/07 00:49:37;;;;;;;12.93;6.22;;;;;;;17.84;76.86;98581.97;5132509;27;20487;-93
2022/06/07 00:52:04;;;;;;;14.25;5.95;;;;;;;17.73;76.65;98575.47;5132758;27;20040;-92
2022/06/07 00:54:32;;;;;;;9.93;5.82;;;;;;;17.61;77.15;98572.56;5132793;27;20142;-93
2022/06/07 00:56:59;;;;;;;10.70;6.10;;;;;;;17.58;77.99;98585.31;5111998;27;20522;-92
2022/06/07 00:59:27;;;;;;;12.50;6.60;;;;;;;17.34;78.83;98549.97;5111709;28;20126;-93
2022/06/07 01:01:53;;;;;;;11.45;6.60;;;;;;;17.32;79.10;98552.75;5098290;28;20104;-93
2022/06/07 01:04:21;;;;;;;15.43;7.03;;;;;;;17.43;79.74;98576.31;5098625;28;20075;-94
2022/06/07 01:12:43;;;;;;;13.82;7.25;;;;;;;17.28;80.20;98563.78;5133782;27;20725;-93
2022/06/07 01:15:10;;;;;;;14.13;6.80;;;;;;;17.18;81.30;98558.06;5134117;27;20455;-93
2022/06/07 01:17:36;;;;;;;12.88;7.65;;;;;;;17.10;81.48;98549.59;5133992;27;20373;-92
2022/06/07 01:20:03;;;;;;;12.38;7.18;;;;;;;17.10;82.29;98563.88;5133471;27;20061;-93
2022/06/07 01:22:30;;;;;;;14.45;6.70;;;;;;;16.98;82.41;98543.06;5133317;27;20047;-93
2022/06/07 01:24:56;;;;;;;13.15;7.15;;;;;;;17.00;83.02;98547.44;5133409;27;20396;-93
2022/06/07 01:27:22;;;;;;;16.42;6.60;;;;;;;16.98;82.28;98543.06;5133484;27;20043;-92
2022/06/07 01:29:48;;;;;;;17.60;7.47;;;;;;;16.95;82.45;98528.00;5133411;27;20043;-93
2022/06/07 01:32:15;;;;;;;15.73;7.55;;;;;;;17.02;83.28;98545.53;5133520;27;20392;-95
2022/06/07 01:34:42;;;;;;;13.73;7.13;;;;;;;16.98;83.18;98535.91;5133688;27;20046;-92
2022/06/07 01:37:09;;;;;;;14.75;8.38;;;;;;;16.99;82.91;98534.06;5132827;27;20039;-93
2022/06/07 01:42:36;;;;;;;13.63;7.95;;;;;;;16.89;83.81;98527.47;5106249;27;20363;-94
2022/06/07 01:45:02;;;;;;;12.30;7.18;;;;;;;16.85;83.28;98524.13;5073081;28;20033;-93
2022/06/07 01:47:31;;;;;;;13.23;6.93;;;;;;;16.86;82.89;98525.84;5073084;28;20037;-93
2022/06/07 01:49:57;;;;;;;13.52;7.20;;;;;;;16.86;83.31;98528.53;5072882;28;20044;-93
2022/06/07 01:52:26;;;;;;;12.30;7.15;;;;;;;16.73;83.04;98517.56;5071940;28;20135;-93
2022/06/07 01:54:51;;;;;;;12.73;7.28;;;;;;;16.77;83.43;98523.66;5072555;28;20045;-94
2022/06/07 01:57:17;;;;;;;18.50;7.38;;;;;;;16.60;83.17;98512.03;5072469;28;20098;-95
2022/06/07 01:59:45;;;;;;;15.00;7.57;;;;;;;16.55;84.53;98513.25;5072352;28;20045;-94
2022/06/07 02:02:10;;;;;;;14.85;8.05;;;;;;;16.51;85.77;98519.75;5072397;28;20405;-95
2022/06/07 02:04:36;;;;;;;12.73;6.70;;;;;;;16.46;85.01;98511.94;5072207;28;20125;-94
2022/06/07 02:07:03;;;;;;;14.15;7.60;;;;;;;16.54;85.87;98528.47;5072254;28;20045;-93
2022/06/07 02:09:29;;;;;;;13.68;7.25;;;;;;;16.52;85.68;98525.00;5072099;28;20068;-94
2022/06/07 02:11:55;;;;;;;13.70;6.47;;;;;;;16.53;84.42;98525.88;5072439;28;20049;-95
2022/06/07 02:14:21;;;;;;;13.77;7.80;;;;;;;16.57;84.26;98532.81;5072098;28;20502;-94
2022/06/07 02:16:48;;;;;;;12.20;6.93;;;;;;;16.53;84.38;98523.22;5071968;28;20071;-94
2022/06/07 02:19:14;;;;;;;12.95;7.80;;;;;;;16.54;84.70;98523.09;5072106;28;20067;-95
2022/06/07 02:21:40;;;;;;;13.02;7.10;;;;;;;16.44;84.52;98521.91;5071654;28;20033;-95
2022/06/07 02:24:07;;;;;;;14.80;7.28;;;;;;;16.44;85.13;98529.94;5072029;28;20037;-94
2022/06/07 02:26:36;;;;;;;10.68;7.18;;;;;;;16.37;86.28;98521.38;5071695;28;20068;-94
2022/06/07 02:29:05;;;;;;;;;;;;;;;16.45;85.82;98522.75;5072409;28;20033;-94
2022/06/07 02:31:32;;;;;;;;;;;;;;;16.44;85.73;98513.84;5071623;28;19920;-95
2022/06/07 02:34:01;;;;;;;12.30;7.57;;;;;;;16.46;85.50;98525.38;5071904;28;19921;-95
2022/06/07 02:36:27;;;;;;;;;;;;;;;16.45;85.20;98512.03;5071860;28;20503;-94
2022/06/07 02:38:54;;;;;;;14.57;7.45;;;;;;;16.30;84.96;98503.84;5071329;28;19921;-94
2022/06/07 02:41:23;;;;;;;13.93;7.30;;;;;;;16.32;85.90;98511.81;5071167;28;20045;-96
2022/06/07 02:43:49;;;;;;;15.02;7.45;;;;;;;16.32;85.71;98522.56;5071189;28;20494;-94
2022/06/07 02:46:14;;;;;;;20.10;8.00;;;;;;;16.15;86.11;98502.84;5071549;28;20063;-93
2022/06/07 02:48:40;;;;;;;14.75;7.13;;;;;;;16.23;86.60;98513.19;5071415;28;20093;-95
2022/06/07 02:51:08;;;;;;;16.83;8.13;;;;;;;16.12;86.09;98497.69;5071340;28;20135;-94
2022/06/07 02:53:33;;;;;;;10.77;7.20;;;;;;;16.26;86.13;98529.09;5059893;28;20072;-94
2022/06/07 02:55:59;;;;;;;11.95;7.60;;;;;;;16.10;85.83;98507.63;5058051;28;20033;-95
2022/06/07 02:58:25;;;;;;;16.20;7.82;;;;;;;16.15;85.94;98515.41;5057946;28;20072;-94
2022/06/07 03:00:51;;;;;;;17.30;7.80;;;;;;;16.10;86.26;98529.06;5057898;28;20096;-95
2022/06/07 03:03:17;;;;;;;13.73;8.13;;;;;;;16.01;86.36;98511.66;5058154;28;20045;-94
2022/06/07 03:05:43;;;;;;;12.40;7.30;;;;;;;15.95;86.86;98520.03;5058262;28;20103;-94
2022/06/07 03:08:12;;;;;;;12.20;7.95;;;;;;;15.88;88.05;98507.91;5058269;28;20114;-94
2022/06/07 03:10:38;;;;;;;14.13;7.50;;;;;;;15.88;87.72;98507.91;5057362;28;20085;-94
2022/06/07 03:13:04;;;;;;;15.35;8.43;;;;;;;15.86;87.66;98514.31;5057890;28;20069;-93
2022/06/07 03:15:30;;;;;;;13.50;8.20;;;;;;;15.82;87.64;98506.41;5057915;28;20487;-94
2022/06/07 03:17:56;;;;;;;12.25;7.55;;;;;;;15.72;89.08;98490.88;5057815;28;20041;-95
2022/06/07 03:20:22;;;;;;;19.83;8.27;;;;;;;15.75;89.00;98507.69;5057988;28;20047;-95
2022/06/07 03:22:47;;;;;;;14.77;8.05;;;;;;;15.79;89.56;98514.63;5057841;28;20481;-95
2022/06/07 03:25:14;;;;;;;14.27;8.55;;;;;;;15.73;89.08;98498.84;5057560;28;20080;-95
2022/06/07 03:27:40;;;;;;;15.93;8.65;;;;;;;15.81;88.88;98518.09;5057931;28;20132;-94
2022/06/07 03:30:09;;;;;;;17.25;7.97;;;;;;;15.76;88.69;98512.06;5057859;28;20064;-94
2022/06/07 03:32:35;;;;;;;13.90;8.17;;;;;;;15.80;88.94;98507.44;5057810;28;20045;-94
2022/06/07 03:35:01;;;;;;;13.32;8.07;;;;;;;15.79;89.96;98508.41;5057752;28;20456;-94
2022/06/07 03:37:27;;;;;;;14.55;8.32;;;;;;;15.77;88.93;98508.47;5057571;28;20098;-94
2022/06/07 03:39:53;;;;;;;16.85;8.82;;;;;;;15.76;90.00;98519.25;5057424;28;20473;-95
2022/06/07 03:42:20;;;;;;;15.32;8.60;;;;;;;15.78;89.84;98518.22;5057413;28;20069;-95
2022/06/07 03:44:48;;;;;;;19.10;8.80;;;;;;;15.65;90.26;98500.16;5057120;28;20045;-95
2022/06/07 03:47:15;;;;;;;14.75;8.60;;;;;;;15.86;90.24;98517.84;5056837;28;20041;-96
2022/06/07 03:49:40;;;;;;;16.30;7.82;;;;;;;15.87;90.39;98526.75;5056617;28;20061;-95
2022/06/07 03:52:07;;;;;;;14.13;8.48;;;;;;;15.87;89.19;98516.00;5057013;28;20052;-94
2022/06/07 03:54:32;;;;;;;14.45;7.75;;;;;;;15.96;89.76;98527.16;5057024;28;20069;-94
2022/06/07 03:56:58;;;;;;;13.52;8.07;;;;;;;15.98;88.67;98517.19;5056924;28;20128;-94
2022/06/07 03:59:27;;;;;;;12.82;8.05;;;;;;;15.93;89.12;98500.47;5057121;28;20045;-95
2022/06/07 04:01:53;;;;;;;12.57;7.80;;;;;;;16.00;89.67;98511.72;5056973;28;20041;-94
2022/06/07 04:04:18;;;;;;;13.93;8.65;;;;;;;16.15;88.84;98518.97;5055858;28;20040;-95
2022/06/07 04:08:10;;;;;;;15.18;8.05;;;;;;;16.12;88.50;98508.41;5057318;28;20063;-95
2022/06/07 04:09:32;;;;;;;16.33;9.02;;;;;;;16.23;88.33;98503.31;5056055;28;20059;-95
2022/06/07 04:11:58;;;;;;;14.90;8.80;;;;;;;16.36;86.97;98519.63;5056952;28;20490;-95
2022/06/07 04:14:25;;;;;;;13.82;8.90;;;;;;;16.41;87.18;98516.69;5056660;28;20140;-94
2022/06/07 04:16:51;;;;;;;15.20;7.68;;;;;;;16.59;85.62;98513.00;5056672;28;20053;-95
2022/06/07 04:19:17;;;;;;;15.02;8.13;;;;;;;16.64;85.07;98513.59;5056683;28;20052;-95
2022/06/07 04:21:43;;;;;;;16.88;8.05;;;;;;;16.59;84.69;98507.63;5056723;28;20041;-94
2022/06/07 04:24:08;;;;;;;13.50;8.35;;;;;;;16.68;85.35;98510.75;5056965;28;20391;-94
2022/06/07 04:26:34;;;;;;;14.93;7.80;;;;;;;16.63;85.77;98487.72;5056395;28;20132;-94
2022/06/07 04:29:00;;;;;;;14.85;7.80;;;;;;;16.82;85.53;98514.41;5056345;28;20072;-94
2022/06/07 04:31:27;;;;;;;13.60;8.40;;;;;;;16.89;85.16;98517.59;5055687;28;20036;-94
2022/06/07 04:33:55;;;;;;;15.32;8.43;;;;;;;16.95;84.67;98521.78;5056256;28;20033;-95
2022/06/07 04:36:22;;;;;;;15.20;7.88;;;;;;;17.02;84.47;98499.84;5056106;28;20037;-95
2022/06/07 04:38:49;;;;;;;14.55;8.35;;;;;;;17.04;83.83;98484.50;5056056;28;20041;-94
2022/06/07 04:41:18;;;;;;;13.73;7.95;;;;;;;17.23;84.68;98507.59;5056033;28;20053;-95
2022/06/07 04:43:45;;;;;;;10.68;7.80;;;;;;;17.21;84.37;98493.41;5056187;28;20044;-94
2022/06/07 04:46:14;;;;;;;13.00;8.18;;;;;;;17.39;83.84;98504.88;5056066;28;20053;-94
2022/06/07 04:48:43;;;;;;;12.85;7.80;;;;;;;17.34;83.92;98480.97;5055769;28;20097;-94
2022/06/07 04:51:12;;;;;;;15.13;7.95;;;;;;;17.54;84.13;98497.72;5055968;28;20051;-94
2022/06/07 04:53:38;;;;;;;14.23;7.40;;;;;;;17.76;83.00;98486.53;5055982;28;20498;-95
2022/06/07 04:56:08;;;;;;;12.90;7.45;;;;;;;18.48;76.44;98503.63;5055951;28;20037;-96
2022/06/07 04:58:34;;;;;;;15.55;7.13;;;;;;;19.05;72.34;98486.50;5055530;28;20056;-95
2022/06/07 05:01:00;;;;;;;11.45;7.13;;;;;;;19.53;70.24;98484.16;5055669;28;20045;-95
2022/06/07 05:03:25;;;;;;;16.27;7.25;;;;;;;19.71;69.52;98484.75;5056077;28;20049;-94
2022/06/07 05:05:52;;;;;;;10.73;6.78;;;;;;;20.21;66.21;98488.47;5055240;28;20116;-95
2022/06/07 05:08:18;;;;;;;14.10;6.80;;;;;;;20.59;64.23;98474.06;5055551;28;20084;-94
2022/06/07 05:10:44;;;;;;;9.82;6.53;;;;;;;20.76;63.41;98486.34;5055846;28;20402;-94
2022/06/07 05:13:10;;;;;;;14.23;7.15;;;;;;;21.00;62.39;98462.03;5055197;28;20041;-96
2022/06/07 05:15:36;;;;;;;11.55;6.07;;;;;;;20.98;63.03;98457.72;5055878;28;20045;-94
2022/06/07 05:18:02;;;;;;;10.63;6.13;;;;;;;21.37;61.70;98464.66;5056365;28;20044;-96
2022/06/07 05:20:27;;;;;;;13.23;6.18;;;;;;;21.64;60.25;98460.84;5057118;28;20045;-95
2022/06/07 05:22:55;;;;;;;14.32;6.53;;;;;;;21.94;58.64;98466.56;5056871;28;20041;-94
2022/06/07 05:25:20;;;;;;;12.93;6.20;;;;;;;21.91;58.67;98453.28;5055942;28;20517;-95
2022/06/07 05:27:49;;;;;;;11.55;6.68;;;;;;;21.91;58.59;98474.94;5057586;28;20045;-94
2022/06/07 05:30:16;;;;;;;10.40;5.93;;;;;;;21.51;59.75;98471.75;5055991;28;20040;-95
2022/06/07 05:32:42;;;;;;;10.32;5.88;;;;;;;21.31;60.45;98474.09;5054689;28;20151;-93
2022/06/07 05:35:08;;;;;;;11.70;5.97;;;;;;;21.38;60.75;98471.78;5057392;28;20037;-94
2022/06/07 05:37:34;;;;;;;9.80;5.88;;;;;;;21.40;60.79;98480.66;5058556;28;20049;-93
2022/06/07 05:40:03;;;;;;;12.45;5.95;;;;;;;21.41;60.39;98477.00;5062559;28;20036;-93
2022/06/07 05:42:29;;;;;;;11.77;6.55;;;;;;;21.33;60.90;98471.28;5058543;28;20060;-94
2022/06/07 05:44:57;;;;;;;14.00;6.78;;;;;;;21.25;61.41;98471.88;5055405;28;20025;-95
2022/06/07 05:47:23;;;;;;;10.50;6.07;;;;;;;20.87;62.45;98466.63;5055232;28;20049;-94
2022/06/07 05:49:49;;;;;;;11.43;6.30;;;;;;;20.58;63.30;98466.94;5054828;28;20037;-94
2022/06/07 05:52:14;;;;;;;12.38;6.25;;;;;;;;;;5054845;28;20044;-96
2022/06/07 05:54:40;;;;;;;12.63;5.75;;;;;;;20.34;63.20;98468.66;5054970;28;20044;-96
2022/06/07 05:57:10;;;;;;;11.57;6.07;;;;;;;20.38;63.21;98479.13;5054678;28;20098;-94
2022/06/07 05:59:36;;;;;;;11.07;6.40;;;;;;;20.49;63.21;98481.06;5055063;28;20095;-95
2022/06/07 06:02:02;;;;;;;11.18;6.53;;;;;;;20.99;61.71;98484.66;5055950;28;20053;-94
2022/06/07 06:04:28;;;;;;;13.52;6.13;;;;;;;21.41;59.56;98476.13;5055355;28;20052;-94
2022/06/07 06:06:55;;;;;;;18.77;6.60;;;;;;;21.62;58.77;98479.03;5055908;28;20037;-94
2022/06/07 06:12:21;;;;;;;11.15;5.82;;;;;;;21.49;58.30;98504.34;5094701;27;20413;-94
2022/06/07 06:14:48;;;;;;;12.02;6.35;;;;;;;21.39;58.92;98494.31;5093370;28;20075;-94
2022/06/07 06:17:14;;;;;;;10.85;6.03;;;;;;;21.29;58.98;98489.56;5092695;28;20454;-93
2022/06/07 06:19:40;;;;;;;13.10;6.13;;;;;;;21.26;58.93;98487.13;5092966;28;20051;-95
2022/06/07 06:22:06;;;;;;;13.20;6.03;;;;;;;21.29;58.51;98478.75;5092586;28;20131;-94
2022/06/07 06:24:31;;;;;;;14.63;6.20;;;;;;;21.67;58.88;98490.38;5093369;28;20070;-95
2022/06/07 06:26:58;;;;;;;11.15;6.20;;;;;;;21.67;58.76;98488.53;5093084;28;20032;-95
2022/06/07 06:29:25;;;;;;;12.80;6.43;;;;;;;21.44;59.53;98478.59;5092872;28;20048;-95
2022/06/07 06:31:51;;;;;;;10.82;6.38;;;;;;;20.92;60.51;98464.44;5093841;28;20031;-95
2022/06/07 06:34:18;;;;;;;8.50;5.53;;;;;;;20.69;62.15;98463.47;5093034;28;20040;-93
2022/06/07 06:36:45;;;;;;;14.73;6.90;;;;;;;20.74;62.05;98485.59;5092668;28;20052;-95
2022/06/07 06:39:10;;;;;;;15.93;6.20;;;;;;;21.31;60.65;98492.16;5092219;28;20477;-93
2022/06/07 06:41:40;;;;;;;11.00;5.90;;;;;;;21.54;58.60;98482.34;5092983;28;20119;-95
2022/06/07 06:44:07;;;;;;;12.60;7.20;;;;;;;21.94;57.49;98461.16;5093082;28;20036;-95
2022/06/07 06:46:37;;;;;;;13.05;6.07;;;;;;;22.44;55.85;98455.41;5092967;28;20040;-95
2022/06/07 06:49:03;;;;;;;10.20;6.00;;;;;;;22.68;55.77;98452.56;5093069;28;20048;-93
2022/06/07 06:51:30;;;;;;;10.05;5.57;;;;;;;22.71;54.04;98459.59;5095485;28;20120;-95
2022/06/07 06:53:56;;;;;;;12.75;5.70;;;;;;;22.85;53.89;98475.56;5093540;28;20044;-94
2022/06/07 06:56:23;;;;;;;12.55;5.78;;;;;;;23.06;53.85;98454.00;5092685;28;20044;-95
2022/06/07 06:58:52;;;;;;;10.55;5.28;;;;;;;23.38;53.19;98445.84;5095732;28;20052;-95
2022/06/07 07:01:21;;;;;;;9.95;5.90;;;;;;;23.59;52.20;98447.72;5093428;28;20040;-94
2022/06/07 07:03:49;;;;;;;11.57;5.70;;;;;;;23.79;52.04;98446.06;5093322;28;20048;-95
2022/06/07 07:06:16;;;;;;;16.27;5.43;;;;;;;24.01;51.55;98444.16;5093503;28;20079;-95
2022/06/07 07:08:44;;;;;;;10.85;5.30;;;;;;;24.30;50.56;98468.78;5093102;28;20049;-93
2022/06/07 07:11:12;;;;;;;11.55;6.07;;;;;;;24.24;51.02;98453.84;5094460;28;20052;-93
2022/06/07 07:13:39;;;;;;;15.23;5.70;;;;;;;24.32;50.10;98442.31;5096986;28;20048;-95
2022/06/07 07:16:09;;;;;;;13.82;5.80;;;;;;;24.38;49.51;98439.06;5095469;28;20052;-96
2022/06/07 07:18:35;;;;;;;16.02;5.78;;;;;;;24.50;49.18;98448.84;5092082;28;20048;-93
2022/06/07 07:21:04;;;;;;;9.93;5.82;;;;;;;24.40;49.89;98443.34;5092179;28;20040;-96
2022/06/07 07:23:30;;;;;;;12.18;5.53;;;;;;;24.57;49.15;98450.03;5079470;28;20041;-92
2022/06/07 07:26:03;;;;;;;12.30;5.47;;;;;;;24.73;49.01;98454.94;5083066;28;20069;-93
2022/06/07 07:28:30;;;;;;;12.32;5.50;;;;;;;24.76;49.00;98443.78;5080273;28;20131;-92
2022/06/07 07:30:59;;;;;;;12.25;5.97;;;;;;;24.96;48.42;98443.81;5078281;28;20402;-93
2022/06/07 07:33:25;;;;;;;14.98;5.78;;;;;;;24.91;48.29;98446.09;5078624;28;20113;-94
2022/06/07 07:35:52;;;;;;;13.23;5.55;;;;;;;24.70;49.43;98435.31;5077913;28;20036;-94
2022/06/07 07:38:19;;;;;;;14.40;5.07;;;;;;;25.01;47.90;98436.09;5080552;28;20037;-93
2022/06/07 07:40:51;;;;;;;9.70;5.00;;;;;;;25.31;47.06;98456.06;5079600;28;20044;-93
2022/06/07 07:43:17;;;;;;;12.50;5.57;;;;;;;25.51;46.76;98438.72;5080072;28;20102;-93
2022/06/07 07:45:42;;;;;;;11.95;5.05;;;;;;;25.82;45.55;98446.72;5079109;28;20080;-93
2022/06/07 07:48:09;;;;;;;8.70;4.15;;;;;;;25.77;42.29;98424.53;5078715;28;20124;-93
2022/06/07 07:50:36;;;;;;;8.98;4.18;;;;;;;25.95;40.71;98439.13;5077536;28;20079;-93
2022/06/07 07:53:02;;;;;;;5.75;4.05;;;;;;;25.76;41.47;98431.84;5077954;28;20047;-94
2022/06/07 07:55:29;;;;;;;7.75;3.83;;;;;;;25.98;42.41;98427.06;5078231;28;20060;-92
2022/06/07 07:57:55;;;;;;;6.97;3.70;;;;;;;26.37;40.16;98457.78;5079041;28;20044;-93
2022/06/07 08:00:21;;;;;;;8.85;3.97;;;;;;;26.56;40.31;98428.75;5079094;28;20063;-95
2022/06/07 08:02:47;;;;;;;7.53;3.65;;;;;;;26.72;38.19;98434.41;5078741;28;20133;-92
2022/06/07 08:05:13;;;;;;;6.95;3.25;;;;;;;26.80;37.96;98442.66;5077027;28;20485;-92
2022/06/07 08:07:39;;;;;;;5.90;3.30;;;;;;;26.59;37.40;98418.41;5077582;28;20083;-94
2022/06/07 08:10:06;;;;;;;7.50;3.78;;;;;;;26.72;38.57;98428.97;5078981;28;20044;-92
2022/06/07 08:12:33;;;;;;;7.88;3.60;;;;;;;26.80;38.91;98420.00;5080935;28;20097;-93
2022/06/07 08:14:59;;;;;;;7.95;3.28;;;;;;;26.93;37.59;98411.44;5081272;28;20037;-94
2022/06/07 08:17:25;;;;;;;7.50;3.58;;;;;;;26.90;36.62;98409.03;5078629;28;20558;-92
2022/06/07 08:19:51;;;;;;;6.85;3.38;;;;;;;26.60;36.65;98436.47;5077907;28;20123;-93
2022/06/07 08:22:17;;;;;;;5.88;3.20;;;;;;;26.64;37.13;98428.84;5081880;28;20070;-95
2022/06/07 08:24:43;;;;;;;8.73;3.30;;;;;;;26.77;37.13;98415.72;5099225;28;20051;-92
2022/06/07 08:27:09;;;;;;;10.27;3.53;;;;;;;26.76;37.23;98396.75;5080503;28;20498;-92
2022/06/07 08:29:36;;;;;;;8.60;3.38;;;;;;;27.00;37.09;98399.75;5078416;28;20142;-92
2022/06/07 08:32:02;;;;;;;7.20;3.10;;;;;;;27.16;37.99;98409.13;5077449;28;20037;-92
2022/06/07 08:40:35;;;;;;;13.00;3.80;;;;;;;27.66;35.92;98409.41;5115045;27;20376;-92
2022/06/07 08:43:07;;;;;;;10.23;3.67;;;;;;;27.23;37.39;98411.09;5113127;28;20043;-94
2022/06/07 08:45:37;;;;;;;12.52;3.70;;;;;;;27.39;38.52;98413.13;5114075;28;20595;-91
2022/06/07 08:48:06;;;;;;;6.95;3.33;;;;;;;27.56;36.55;98396.88;5116131;28;20043;-92
2022/06/07 08:50:34;;;;;;;9.85;3.85;;;;;;;27.62;36.29;98391.63;5115192;28;20040;-92
2022/06/07 08:53:02;;;;;;;;;;;;;;;27.93;36.65;98393.06;5114663;28;20040;-93
2022/06/07 08:55:36;;;;;;;7.78;3.92;;;;;;;27.83;35.60;98387.69;5114071;28;19981;-92
2022/06/07 08:58:14;;;;;;;8.70;3.50;;;;;;;27.89;36.31;98384.34;5115077;28;20565;-91
2022/06/07 09:00:44;;;;;;;6.57;3.53;;;;;;;27.58;36.80;98400.31;5113134;28;20064;-93
2022/06/07 09:03:41;;;;;;;8.48;3.38;;;;;;;27.92;37.62;98396.84;5114402;28;20123;-92
2022/06/07 09:06:17;;;;;;;10.63;3.40;;;;;;;27.96;36.29;98374.47;5113580;28;20508;-93
2022/06/07 09:08:46;;;;;;;5.25;2.97;;;;;;;27.82;34.78;98383.22;5111597;28;20075;-92
2022/06/07 09:14:29;;;;;;;8.57;3.40;;;;;;;27.88;36.18;98359.91;5115289;27;20373;-94
2022/06/07 09:16:56;;;;;;;5.97;3.45;;;;;;;27.57;35.49;98361.22;5114161;28;20497;-92
2022/06/07 09:19:26;;;;;;;6.18;3.42;;;;;;;27.62;35.42;98374.38;5115206;28;20051;-94
2022/06/07 09:21:55;;;;;;;6.63;3.17;;;;;;;28.05;34.92;98368.03;5115093;28;20054;-94
2022/06/07 09:24:28;;;;;;;7.60;3.10;;;;;;;28.32;33.68;98355.16;5114811;28;20079;-93
2022/06/07 09:27:05;;;;;;;7.30;3.15;;;;;;;28.43;32.31;98338.47;5114924;28;20055;-93
2022/06/07 09:29:35;;;;;;;7.20;3.15;;;;;;;28.17;34.21;98348.59;5112632;28;20366;-93
2022/06/07 09:32:01;;;;;;;7.82;3.22;;;;;;;28.18;32.84;98342.13;5115120;28;20062;-91
2022/06/07 09:34:29;;;;;;;6.47;2.83;;;;;;;28.64;33.38;98356.34;5115611;28;20048;-94
2022/06/07 09:36:59;;;;;;;8.02;3.35;;;;;;;28.86;32.48;98354.84;5114090;28;20024;-93
2022/06/07 09:39:29;;;;;;;6.00;3.53;;;;;;;28.74;32.72;98340.66;5115237;28;20044;-93
2022/06/07 09:42:01;;;;;;;6.55;3.10;;;;;;;27.89;34.16;98362.50;5113824;28;20050;-92
2022/06/07 09:44:31;;;;;;;5.65;3.25;;;;;;;27.99;34.39;98345.97;5113371;28;20044;-89
2022/06/07 09:47:02;;;;;;;4.60;2.90;;;;;;;28.27;34.56;98341.13;5113751;28;20040;-92
2022/06/07 09:49:34;;;;;;;7.57;3.15;;;;;;;28.25;33.30;98343.19;5113588;28;20043;-91
2022/06/07 09:52:14;;;;;;;6.78;3.28;;;;;;;27.69;34.96;98345.41;5111995;28;20046;-93
2022/06/07 09:54:43;;;;;;;6.90;3.50;;;;;;;28.01;34.09;98344.78;5109668;28;20040;-93
2022/06/07 09:57:21;;;;;;;6.25;3.10;;;;;;;28.32;35.98;98346.97;5116344;28;20054;-94
2022/06/07 10:00:17;;;;;;;7.85;3.17;;;;;;;28.80;32.93;98348.19;5111299;28;20036;-94
2022/06/07 10:03:15;;;;;;;8.05;3.60;;;;;;;28.20;33.68;98331.91;5114603;28;20032;-90
2022/06/07 10:05:44;;;;;;;4.97;3.08;;;;;;;27.70;33.73;98328.00;5116554;28;20101;-95
2022/06/07 10:08:39;;;;;;;6.20;3.20;;;;;;;28.04;33.96;98336.25;5115163;28;20044;-94
2022/06/07 10:11:12;;;;;;;8.55;3.35;;;;;;;27.92;34.55;98314.84;5102229;28;20058;-95
2022/06/07 10:13:53;;;;;;;7.63;2.88;;;;;;;28.44;34.38;98311.97;5115116;28;20044;-94
2022/06/07 10:16:26;;;;;;;5.28;3.00;;;;;;;28.96;33.31;98311.75;5114759;28;20447;-93
2022/06/07 10:19:09;;;;;;;6.43;3.40;;;;;;;28.77;32.25;98310.19;5108774;28;20047;-92
2022/06/07 10:21:51;;;;;;;7.10;3.10;;;;;;;28.31;33.70;98292.47;5108014;28;20493;-94
2022/06/07 10:24:32;;;;;;;4.80;3.13;;;;;;;28.97;33.28;98313.47;5107529;28;20091;-93
2022/06/07 10:27:11;;;;;;;6.22;3.10;;;;;;;29.28;33.91;98291.78;5080675;28;20051;-96
2022/06/07 10:30:12;;;;;;;8.10;3.10;;;;;;;28.45;33.24;98287.22;5090824;28;20566;-94
2022/06/07 10:32:53;;;;;;;6.32;3.65;;;;;;;28.09;34.28;98296.66;5083274;28;20032;-91
2022/06/07 10:35:26;;;;;;;5.88;3.40;;;;;;;27.91;34.53;98283.94;5099354;28;20044;-94
2022/06/07 10:38:08;;;;;;;6.47;3.20;;;;;;;27.70;34.18;98306.16;5100031;28;20385;-91
2022/06/07 10:40:41;;;;;;;5.30;3.17;;;;;;;28.18;33.76;98269.16;5080840;28;20098;-94
2022/06/07 10:43:16;;;;;;;8.77;3.60;;;;;;;27.93;33.77;98278.28;5099195;28;20121;-94
2022/06/07 10:45:44;;;;;;;7.00;3.25;;;;;;;28.26;34.57;98280.13;5099504;28;20143;-93
2022/06/07 10:48:16;;;;;;;5.88;3.17;;;;;;;28.29;34.77;98273.47;5099540;28;20078;-90
2022/06/07 10:50:48;;;;;;;4.97;3.30;;;;;;;28.34;34.23;98272.97;5097305;28;20043;-92
2022/06/07 10:53:19;;;;;;;10.25;3.63;;;;;;;28.25;35.04;98269.34;5096211;28;20036;-91
2022/06/07 10:55:52;;;;;;;5.20;3.13;;;;;;;28.45;34.31;98272.66;5096911;28;20405;-93
2022/06/07 10:58:29;;;;;;;6.78;3.88;;;;;;;28.71;34.95;98269.81;5096676;28;20040;-92
2022/06/07 11:01:01;;;;;;;5.22;3.30;;;;;;;29.05;33.55;98269.66;5095591;28;20040;-93
2022/06/07 11:03:38;;;;;;;5.60;3.10;;;;;;;29.25;33.02;98252.91;5097065;28;20040;-92
2022/06/07 11:09:20;;;;;;;7.55;3.10;;;;;;;29.63;33.44;98251.31;5106954;27;20383;-93
2022/06/07 11:11:47;;;;;;;7.65;4.10;;;;;;;29.55;32.67;98251.31;5073083;28;20047;-92
2022/06/07 11:14:33;;;;;;;9.03;3.40;;;;;;;29.41;32.20;98250.16;5072741;28;20041;-92
2022/06/07 11:17:06;;;;;;;5.35;3.40;;;;;;;29.27;33.27;98235.28;5071432;28;20041;-90
2022/06/07 11:19:32;;;;;;;7.45;3.60;;;;;;;29.33;33.37;98246.59;5069261;28;20736;-91
2022/06/07 11:22:03;;;;;;;5.68;3.00;;;;;;;29.14;33.38;98237.69;5072400;28;20427;-93
2022/06/07 11:24:32;;;;;;;5.75;3.30;;;;;;;29.34;32.64;98218.16;5075110;28;20045;-94
2022/06/07 11:27:21;;;;;;;9.45;3.10;;;;;;;29.75;33.19;98218.91;5073923;28;20075;-95
2022/06/07 11:29:47;;;;;;;7.32;3.15;;;;;;;29.87;32.03;98220.25;5073040;28;20049;-94
2022/06/07 11:32:47;;;;;;;6.75;3.30;;;;;;;29.58;33.64;98222.72;5072938;28;20036;-91
2022/06/07 11:35:45;;;;;;;6.43;3.20;;;;;;;29.32;33.11;98229.31;5026274;28;20070;-96
2022/06/07 11:38:32;;;;;;;7.85;3.63;;;;;;;29.57;32.34;98227.34;5032371;28;20189;-94
2022/06/07 11:41:38;;;;;;;7.25;3.40;;;;;;;29.72;33.14;98188.28;5015189;28;20078;-95
2022/06/07 11:44:36;;;;;;;7.15;3.17;;;;;;;29.95;31.93;98181.00;5021756;28;20065;-96
2022/06/07 11:47:21;;;;;;;4.53;3.08;;;;;;;30.06;32.81;98186.06;4995040;28;20114;-94
2022/06/07 11:50:00;;;;;;;9.07;3.53;;;;;;;29.56;32.32;98197.38;5013335;28;20038;-92
2022/06/07 11:52:28;;;;;;;8.02;3.20;;;;;;;29.39;33.24;98200.19;5015817;28;20052;-93
2022/06/07 11:54:58;;;;;;;7.68;3.22;;;;;;;29.74;32.94;98194.44;5020369;28;20081;-92
2022/06/07 11:57:29;;;;;;;6.32;3.03;;;;;;;29.72;31.83;98172.69;5022370;28;20096;-92
2022/06/07 11:59:59;;;;;;;6.30;2.70;;;;;;;29.81;31.13;98168.03;5012611;28;20050;-92
2022/06/07 12:02:28;;;;;;;5.63;3.05;;;;;;;29.44;31.84;98194.16;5023395;28;20042;-92